Time;durP1;ratioP1;P1;durP2;ratioP2;P2;SDS_P1;SDS_P2;PMS_P1;PMS_P2;Temp;Humidity;BMP_temperature;BMP_pressure;BME280_temperature;BME280_humidity;BME280_pressure;Samples;Min_cycle;Max_cycle;Signal;HPM_P1;HPM_P2
2022/03/09 00:02:02;;;;;;;6.90;6.13;;;;;;;;;;6131440;23;20186;-84
2022/03/09 00:04:31;;;;;;;9.70;6.87;;;;;;;;;;6130634;23;20200;-84
2022/03/09 00:06:59;;;;;;;10.53;8.73;;;;;;;;;;6156630;23;20179;-84
2022/03/09 00:09:29;;;;;;;8.73;7.40;;;;;;;;;;6156531;23;20195;-84
2022/03/09 00:11:58;;;;;;;11.00;7.97;;;;;;;;;;6131109;23;20183;-84
2022/03/09 00:14:27;;;;;;;3.40;3.13;;;;;;;;;;6130944;23;20176;-84
2022/03/09 00:16:55;;;;;;;1.97;1.87;;;;;;;;;;6131038;23;20186;-84
2022/03/09 00:19:24;;;;;;;2.13;1.97;;;;;;;;;;6130571;23;20180;-84
2022/03/09 00:21:53;;;;;;;4.17;3.63;;;;;;;;;;6130476;23;20175;-84
2022/03/09 00:24:21;;;;;;;1.20;1.20;;;;;;;;;;6130977;23;20175;-84
2022/03/09 00:26:51;;;;;;;0.80;0.80;;;;;;;;;;6130788;23;20180;-84
2022/03/09 00:29:19;;;;;;;2.87;2.67;;;;;;;;;;6156042;23;20182;-84
2022/03/09 00:31:48;;;;;;;10.90;8.07;;;;;;;;;;6130567;23;20182;-84
2022/03/09 00:34:16;;;;;;;12.97;9.37;;;;;;;;;;6130567;23;20182;-85
2022/03/09 00:36:45;;;;;;;10.43;8.23;;;;;;;;;;6131043;23;20176;-84
2022/03/09 00:39:13;;;;;;;13.07;8.67;;;;;;;;;;6156141;23;20176;-84
2022/03/09 00:41:42;;;;;;;12.10;7.83;;;;;;;;;;6130291;23;20211;-84
2022/03/09 00:44:12;;;;;;;9.23;6.30;;;;;;;;;;6156103;23;20219;-84
2022/03/09 00:46:40;;;;;;;12.47;7.70;;;;;;;;;;6130478;23;20172;-84
2022/03/09 00:49:09;;;;;;;9.93;7.23;;;;;;;;;;6130260;23;20274;-84
2022/03/09 00:51:37;;;;;;;5.80;5.27;;;;;;;;;;6156300;23;20196;-84
2022/03/09 00:54:05;;;;;;;3.93;3.03;;;;;;;;;;6130234;23;20230;-84
2022/03/09 00:56:34;;;;;;;7.67;6.57;;;;;;;;;;6130861;23;20184;-84
2022/03/09 00:59:02;;;;;;;5.53;3.63;;;;;;;;;;6155996;23;20182;-84
2022/03/09 01:01:32;;;;;;;1.03;1.03;;;;;;;;;;6130343;23;20176;-84
2022/03/09 01:04:01;;;;;;;0.70;0.70;;;;;;;;;;6130760;23;20202;-84
2022/03/09 01:06:29;;;;;;;7.07;4.53;;;;;;;;;;6130426;23;20186;-84
2022/03/09 01:08:58;;;;;;;7.37;6.17;;;;;;;;;;6131084;23;20202;-84
2022/03/09 01:11:26;;;;;;;5.30;3.77;;;;;;;;;;6156234;23;20191;-84
2022/03/09 01:13:54;;;;;;;8.77;5.93;;;;;;;;;;6130775;23;20186;-84
2022/03/09 01:16:23;;;;;;;5.53;4.50;;;;;;;;;;6130159;23;20180;-84
2022/03/09 01:18:53;;;;;;;8.97;6.63;;;;;;;;;;6130115;23;20184;-84
2022/03/09 01:21:21;;;;;;;9.37;7.50;;;;;;;;;;6130375;23;20236;-84
2022/03/09 01:23:49;;;;;;;3.20;2.97;;;;;;;;;;6129971;23;20199;-84
2022/03/09 01:26:18;;;;;;;2.03;1.80;;;;;;;;;;6130215;23;20183;-84
2022/03/09 01:28:48;;;;;;;1.87;1.77;;;;;;;;;;6156319;23;20219;-84
2022/03/09 01:31:16;;;;;;;5.00;4.50;;;;;;;;;;6130168;23;20199;-84
2022/03/09 01:33:44;;;;;;;4.70;4.03;;;;;;;;;;6130121;23;20375;-84
2022/03/09 01:36:14;;;;;;;5.07;4.67;;;;;;;;;;6130037;23;20179;-84
2022/03/09 01:38:48;;;;;;;17.27;6.67;;;;;;;;;;6130008;23;20183;-84
2022/03/09 01:41:17;;;;;;;6.40;4.63;;;;;;;;;;6129811;23;20199;-84
2022/03/09 01:43:45;;;;;;;11.03;6.27;;;;;;;;;;6155752;23;20188;-84
2022/03/09 01:46:13;;;;;;;10.50;8.43;;;;;;;;;;6130153;23;20178;-84
2022/03/09 01:48:42;;;;;;;10.77;9.47;;;;;;;;;;6156040;23;20255;-84
2022/03/09 01:51:10;;;;;;;10.47;9.37;;;;;;;;;;6130015;23;20195;-84
2022/03/09 01:53:40;;;;;;;10.60;9.43;;;;;;;;;;6129873;23;20551;-84
2022/03/09 01:56:09;;;;;;;12.00;9.57;;;;;;;;;;6129412;23;20184;-84
2022/03/09 01:58:37;;;;;;;12.63;9.63;;;;;;;;;;6156254;23;20176;-84
2022/03/09 02:01:05;;;;;;;9.47;7.60;;;;;;;;;;6129861;23;20239;-84
2022/03/09 02:03:34;;;;;;;11.53;9.57;;;;;;;;;;6129797;23;20206;-84
2022/03/09 02:06:03;;;;;;;13.03;10.43;;;;;;;;;;6129396;23;20172;-84
2022/03/09 02:11:20;;;;;;;9.10;7.60;;;;;;;;;;6155030;23;20195;-84
2022/03/09 02:13:48;;;;;;;11.83;9.60;;;;;;;;;;6129417;23;20226;-84
2022/03/09 02:16:16;;;;;;;12.07;10.77;;;;;;;;;;6129441;23;20176;-84
2022/03/09 02:18:45;;;;;;;11.80;9.97;;;;;;;;;;6129587;23;20183;-84
2022/03/09 02:21:16;;;;;;;9.20;6.73;;;;;;;;;;6129614;23;20172;-85
2022/03/09 02:23:46;;;;;;;8.17;7.23;;;;;;;;;;6129228;23;20262;-84
2022/03/09 02:26:15;;;;;;;11.40;8.23;;;;;;;;;;6129678;23;20242;-84
2022/03/09 02:28:47;;;;;;;11.57;8.77;;;;;;;;;;6129449;23;20175;-84
2022/03/09 02:31:16;;;;;;;11.87;9.97;;;;;;;;;;6129072;23;20279;-84
2022/03/09 02:33:45;;;;;;;10.27;9.37;;;;;;;;;;6129698;23;20180;-84
2022/03/09 02:36:13;;;;;;;14.77;8.03;;;;;;;;;;6155328;23;20168;-84
2022/03/09 02:38:42;;;;;;;10.37;8.30;;;;;;;;;;6129381;23;20258;-84
2022/03/09 02:41:11;;;;;;;11.20;10.03;;;;;;;;;;6129080;23;20262;-84
2022/03/09 02:43:40;;;;;;;12.17;10.03;;;;;;;;;;6155002;23;20172;-84
2022/03/09 02:46:10;;;;;;;12.17;10.23;;;;;;;;;;6129140;23;20182;-84
2022/03/09 02:48:38;;;;;;;10.67;8.17;;;;;;;;;;6129270;23;20176;-84
2022/03/09 02:51:06;;;;;;;10.50;9.40;;;;;;;;;;6129005;23;20203;-84
2022/03/09 02:53:35;;;;;;;12.70;8.67;;;;;;;;;;6129367;23;20184;-84
2022/03/09 02:56:03;;;;;;;11.40;10.17;;;;;;;;;;6129607;23;20197;-84
2022/03/09 02:58:34;;;;;;;12.50;9.93;;;;;;;;;;6155245;23;20201;-84
2022/03/09 03:01:02;;;;;;;13.07;10.43;;;;;;;;;;6129576;23;20172;-84
2022/03/09 03:03:31;;;;;;;13.30;11.20;;;;;;;;;;6129132;23;20198;-84
2022/03/09 03:05:59;;;;;;;11.17;8.27;;;;;;;;;;6129188;23;20174;-84
2022/03/09 03:08:28;;;;;;;12.77;9.73;;;;;;;;;;6129163;23;20180;-84
2022/03/09 03:10:56;;;;;;;13.70;9.87;;;;;;;;;;6128992;23;20175;-84
2022/03/09 03:13:25;;;;;;;10.70;8.57;;;;;;;;;;6154758;23;20176;-84
2022/03/09 03:15:55;;;;;;;15.43;9.87;;;;;;;;;;6129010;23;20266;-84
2022/03/09 03:18:23;;;;;;;9.63;7.70;;;;;;;;;;6128778;23;20208;-84
2022/03/09 03:20:54;;;;;;;8.80;5.83;;;;;;;;;;6129033;23;20186;-84
2022/03/09 03:23:23;;;;;;;13.60;10.03;;;;;;;;;;6154981;23;20171;-84
2022/03/09 03:25:51;;;;;;;11.17;10.07;;;;;;;;;;6155109;23;20168;-84
2022/03/09 03:28:20;;;;;;;9.20;7.97;;;;;;;;;;6128928;23;20175;-84
2022/03/09 03:30:50;;;;;;;9.97;7.93;;;;;;;;;;6129159;23;20186;-84
2022/03/09 03:33:21;;;;;;;12.03;8.90;;;;;;;;;;6128952;23;20199;-84
2022/03/09 03:35:52;;;;;;;11.33;9.63;;;;;;;;;;6155153;23;20181;-84
2022/03/09 03:38:21;;;;;;;10.23;7.97;;;;;;;;;;6154899;23;20187;-84
2022/03/09 03:40:49;;;;;;;12.33;9.53;;;;;;;;;;6128544;23;20203;-84
2022/03/09 03:43:17;;;;;;;15.90;10.17;;;;;;;;;;6128592;23;20171;-84
2022/03/09 03:45:46;;;;;;;13.77;9.97;;;;;;;;;;6129078;23;20179;-84
2022/03/09 03:48:14;;;;;;;9.70;8.57;;;;;;;;;;6128435;23;20175;-84
2022/03/09 03:50:44;;;;;;;11.43;9.70;;;;;;;;;;6154429;23;20172;-84
2022/03/09 03:53:12;;;;;;;10.37;9.23;;;;;;;;;;6128965;23;20195;-84
2022/03/09 03:55:41;;;;;;;13.33;10.37;;;;;;;;;;6128978;23;20187;-84
2022/03/09 03:58:09;;;;;;;12.10;10.13;;;;;;;;;;6129193;23;20185;-84
2022/03/09 04:00:38;;;;;;;10.83;9.57;;;;;;;;;;6128809;23;20183;-84
2022/03/09 04:03:06;;;;;;;9.47;7.13;;;;;;;;;;6128754;23;20192;-84
2022/03/09 04:05:35;;;;;;;9.73;8.73;;;;;;;;;;6128657;23;20172;-84
2022/03/09 04:08:05;;;;;;;12.20;9.17;;;;;;;;;;6154666;23;20254;-84
2022/03/09 04:10:33;;;;;;;7.63;5.23;;;;;;;;;;6154922;23;20250;-84
2022/03/09 04:13:04;;;;;;;3.97;3.53;;;;;;;;;;6129072;23;20195;-84
2022/03/09 04:15:32;;;;;;;12.83;7.80;;;;;;;;;;6154889;23;20179;-84
2022/03/09 04:18:04;;;;;;;12.20;10.90;;;;;;;;;;6128589;23;20176;-84
2022/03/09 04:20:33;;;;;;;12.27;9.13;;;;;;;;;;6128804;23;20183;-84
2022/03/09 04:23:02;;;;;;;14.00;10.97;;;;;;;;;;6154586;23;20191;-84
2022/03/09 04:25:32;;;;;;;13.03;9.27;;;;;;;;;;6128879;23;20181;-85
2022/03/09 04:28:00;;;;;;;13.73;9.80;;;;;;;;;;6128732;23;20188;-83
2022/03/09 04:30:29;;;;;;;16.33;10.83;;;;;;;;;;6129091;23;20187;-84
2022/03/09 04:32:57;;;;;;;9.97;8.97;;;;;;;;;;6128547;23;20196;-84
2022/03/09 04:35:26;;;;;;;11.03;9.17;;;;;;;;;;6130840;23;20179;-84
2022/03/09 04:37:54;;;;;;;12.60;9.33;;;;;;;;;;6130406;23;20188;-84
2022/03/09 04:40:22;;;;;;;11.27;9.83;;;;;;;;;;6130047;23;20218;-84
2022/03/09 04:42:55;;;;;;;11.70;9.27;;;;;;;;;;6130448;23;20176;-84
2022/03/09 04:45:24;;;;;;;11.33;8.93;;;;;;;;;;6156228;23;20175;-84
2022/03/09 04:47:52;;;;;;;10.43;9.40;;;;;;;;;;6130239;23;20182;-84
2022/03/09 04:50:20;;;;;;;12.13;8.17;;;;;;;;;;6130916;23;20204;-84
2022/03/09 04:52:49;;;;;;;7.63;6.47;;;;;;;;;;6130345;23;20229;-84
2022/03/09 04:55:17;;;;;;;11.17;9.00;;;;;;;;;;6130282;23;20180;-84
2022/03/09 04:57:46;;;;;;;12.17;8.13;;;;;;;;;;6130139;23;20187;-84
2022/03/09 05:00:17;;;;;;;11.63;8.40;;;;;;;;;;6130179;23;20258;-84
2022/03/09 05:02:46;;;;;;;12.30;9.00;;;;;;;;;;6155852;23;20229;-84
2022/03/09 05:05:15;;;;;;;11.93;8.73;;;;;;;;;;6130137;23;20179;-84
2022/03/09 05:07:43;;;;;;;11.50;9.13;;;;;;;;;;6155793;23;20190;-84
2022/03/09 05:10:12;;;;;;;3.07;2.87;;;;;;;;;;6156456;23;20178;-84
2022/03/09 05:12:40;;;;;;;3.13;3.03;;;;;;;;;;6130217;23;20199;-84
2022/03/09 05:15:09;;;;;;;10.57;8.33;;;;;;;;;;6130331;23;20186;-84
2022/03/09 05:17:42;;;;;;;11.33;8.23;;;;;;;;;;6130226;23;20182;-84
2022/03/09 05:20:11;;;;;;;12.27;8.90;;;;;;;;;;6130273;23;20182;-84
2022/03/09 05:22:39;;;;;;;1.87;1.77;;;;;;;;;;6130051;23;20175;-84
2022/03/09 05:25:08;;;;;;;10.97;8.17;;;;;;;;;;6130246;23;20179;-84
2022/03/09 05:27:38;;;;;;;7.67;6.80;;;;;;;;;;6130287;23;20357;-84
2022/03/09 05:30:07;;;;;;;10.70;8.07;;;;;;;;;;6129998;23;20238;-84
2022/03/09 05:32:35;;;;;;;8.97;8.03;;;;;;;;;;6130011;23;20211;-84
2022/03/09 05:35:05;;;;;;;5.63;3.93;;;;;;;;;;6129986;23;20172;-83
2022/03/09 05:37:37;;;;;;;7.93;6.63;;;;;;;;;;6129801;23;20175;-84
2022/03/09 05:40:06;;;;;;;8.90;6.90;;;;;;;;;;6130198;23;20186;-85
2022/03/09 05:42:35;;;;;;;10.93;8.40;;;;;;;;;;6130194;23;20174;-84
2022/03/09 05:45:03;;;;;;;3.77;3.10;;;;;;;;;;6155816;23;20247;-84
2022/03/09 05:47:48;;;;;;;10.37;8.50;;;;;;;;;;6129661;23;20218;-84
2022/03/09 05:50:18;;;;;;;8.67;7.67;;;;;;;;;;6130198;23;20242;-84
2022/03/09 05:52:47;;;;;;;3.40;3.17;;;;;;;;;;6155665;23;20192;-83
2022/03/09 05:55:15;;;;;;;3.37;2.37;;;;;;;;;;6129955;23;20176;-84
2022/03/09 05:57:46;;;;;;;3.60;3.07;;;;;;;;;;6129743;23;20175;-84
2022/03/09 06:00:15;;;;;;;1.00;1.00;;;;;;;;;;6129950;23;20203;-84
2022/03/09 06:02:44;;;;;;;0.90;0.90;;;;;;;;;;6129623;23;20175;-84
2022/03/09 06:05:20;;;;;;;1.63;1.53;;;;;;;;;;6155556;23;20197;-84
2022/03/09 06:07:49;;;;;;;1.20;1.20;;;;;;;;;;6130133;23;20215;-84
2022/03/09 06:10:17;;;;;;;3.13;2.93;;;;;;;;;;6129526;23;20536;-84
2022/03/09 06:12:46;;;;;;;5.00;3.97;;;;;;;;;;6130145;23;20206;-83
2022/03/09 06:15:14;;;;;;;8.60;6.77;;;;;;;;;;6129940;23;20182;-84
2022/03/09 06:17:46;;;;;;;8.00;5.53;;;;;;;;;;6129694;23;20179;-84
2022/03/09 06:20:16;;;;;;;1.53;1.53;;;;;;;;;;6155659;23;20194;-84
2022/03/09 06:22:46;;;;;;;2.43;2.23;;;;;;;;;;6129797;23;20171;-84
2022/03/09 06:25:15;;;;;;;7.30;4.83;;;;;;;;;;6130014;23;20179;-84
2022/03/09 06:27:44;;;;;;;3.23;2.50;;;;;;;;;;6128994;23;20184;-84
2022/03/09 06:30:13;;;;;;;3.33;2.90;;;;;;;;;;6155241;23;20179;-84
2022/03/09 06:32:42;;;;;;;5.57;5.03;;;;;;;;;;6129100;23;20180;-84
2022/03/09 06:35:11;;;;;;;33.23;6.23;;;;;;;;;;6129248;23;20176;-84
2022/03/09 06:37:40;;;;;;;6.43;2.77;;;;;;;;;;6129804;23;20274;-84
2022/03/09 06:40:10;;;;;;;8.37;5.97;;;;;;;;;;6128983;23;20189;-84
2022/03/09 06:42:39;;;;;;;4.47;3.93;;;;;;;;;;6155082;23;20176;-83
2022/03/09 06:45:08;;;;;;;7.00;5.40;;;;;;;;;;6129510;23;20176;-82
2022/03/09 06:47:38;;;;;;;4.20;3.90;;;;;;;;;;6155196;23;20198;-84
2022/03/09 06:50:08;;;;;;;9.63;6.67;;;;;;;;;;6129147;23;20282;-82
2022/03/09 06:52:37;;;;;;;6.17;3.20;;;;;;;;;;6129425;23;20275;-83
2022/03/09 06:55:07;;;;;;;8.90;8.03;;;;;;;;;;6129240;23;20282;-85
2022/03/09 06:57:38;;;;;;;11.10;7.40;;;;;;;;;;6128462;23;20172;-84
2022/03/09 07:00:08;;;;;;;6.33;5.63;;;;;;;;;;6155029;23;20175;-84
2022/03/09 07:02:36;;;;;;;9.60;6.33;;;;;;;;;;6129299;23;20191;-84
2022/03/09 07:05:05;;;;;;;11.80;6.77;;;;;;;;;;6129501;23;20192;-84
2022/03/09 07:07:36;;;;;;;4.43;4.03;;;;;;;;;;6129304;23;20176;-83
2022/03/09 07:10:05;;;;;;;15.27;4.80;;;;;;;;;;6154873;23;20180;-84
2022/03/09 07:12:34;;;;;;;7.63;6.70;;;;;;;;;;6129521;23;20270;-84
2022/03/09 07:15:04;;;;;;;3.33;2.97;;;;;;;;;;6155197;23;20198;-84
2022/03/09 07:17:32;;;;;;;1.70;1.43;;;;;;;;;;6155263;23;20172;-84
2022/03/09 07:20:01;;;;;;;6.07;4.60;;;;;;;;;;6129085;23;20206;-84
2022/03/09 07:22:29;;;;;;;2.10;2.00;;;;;;;;;;6129299;23;20180;-84
2022/03/09 07:24:58;;;;;;;3.13;2.67;;;;;;;;;;6129508;23;20214;-84
2022/03/09 07:27:26;;;;;;;2.93;2.73;;;;;;;;;;6129074;23;20175;-84
2022/03/09 07:29:56;;;;;;;4.00;3.67;;;;;;;;;;6129412;23;20202;-86
2022/03/09 07:32:26;;;;;;;6.20;4.43;;;;;;;;;;6129588;23;20262;-85
2022/03/09 07:35:15;;;;;;;4.90;4.33;;;;;;;;;;6128921;23;20211;-85
2022/03/09 07:37:43;;;;;;;6.50;4.93;;;;;;;;;;6128765;23;20295;-84
2022/03/09 07:40:12;;;;;;;5.87;5.17;;;;;;;;;;6128938;23;20207;-84
2022/03/09 07:42:41;;;;;;;5.43;4.30;;;;;;;;;;6129211;23;20176;-87
2022/03/09 07:45:09;;;;;;;5.30;4.27;;;;;;;;;;6129268;23;20259;-87
2022/03/09 07:47:39;;;;;;;2.47;2.27;;;;;;;;;;6128869;23;20180;-87
2022/03/09 07:50:16;;;;;;;7.40;5.53;;;;;;;;;;6129328;23;20185;-85
2022/03/09 07:52:44;;;;;;;5.40;4.87;;;;;;;;;;6129535;23;20179;-87
2022/03/09 07:55:13;;;;;;;9.47;7.17;;;;;;;;;;6128726;23;20202;-87
2022/03/09 07:57:44;;;;;;;3.43;3.13;;;;;;;;;;6128880;23;20176;-87
2022/03/09 08:00:13;;;;;;;5.67;4.30;;;;;;;;;;6129424;23;20284;-87
2022/03/09 08:02:52;;;;;;;4.93;4.30;;;;;;;;;;6129141;23;20249;-85
2022/03/09 08:06:03;;;;;;;11.70;7.83;;;;;;;;;;6129733;23;20179;-85
2022/03/09 08:16:02;;;;;;;10.97;8.27;;;;;;;;;;6108010;23;20189;-85
2022/03/09 08:18:46;;;;;;;14.30;10.60;;;;;;;;;;6130962;23;20176;-86
2022/03/09 08:21:41;;;;;;;12.30;7.63;;;;;;;;;;6130935;23;20180;-86
2022/03/09 08:24:35;;;;;;;10.77;9.17;;;;;;;;;;6129480;23;20186;-86
2022/03/09 08:27:09;;;;;;;7.43;6.03;;;;;;;;;;6131160;23;20176;-86
2022/03/09 08:29:50;;;;;;;15.33;9.80;;;;;;;;;;6130880;23;20266;-86
2022/03/09 08:32:27;;;;;;;11.30;8.03;;;;;;;;;;6130715;23;20183;-86
2022/03/09 08:35:17;;;;;;;7.70;5.73;;;;;;;;;;6127482;23;20199;-86
2022/03/09 08:37:56;;;;;;;12.07;10.87;;;;;;;;;;6130994;23;20186;-86
2022/03/09 08:40:35;;;;;;;7.80;6.10;;;;;;;;;;6130424;23;20215;-85
2022/03/09 08:43:06;;;;;;;11.73;7.03;;;;;;;;;;6131636;23;20227;-86
2022/03/09 08:45:45;;;;;;;7.87;6.07;;;;;;;;;;6130470;23;20172;-85
2022/03/09 08:48:21;;;;;;;16.83;9.03;;;;;;;;;;6130433;23;20177;-86
2022/03/09 08:50:57;;;;;;;8.67;5.60;;;;;;;;;;6130304;23;20181;-86
2022/03/09 08:53:40;;;;;;;7.10;5.67;;;;;;;;;;6130477;23;20188;-86
2022/03/09 08:59:50;;;;;;;6.00;5.07;;;;;;;;;;6108084;23;20184;-86
2022/03/09 09:02:25;;;;;;;8.77;4.47;;;;;;;;;;6130694;23;20175;-86
2022/03/09 09:05:25;;;;;;;8.93;7.30;;;;;;;;;;6130463;23;20172;-87
2022/03/09 09:08:15;;;;;;;1.43;1.43;;;;;;;;;;6129660;23;20182;-86
2022/03/09 09:11:20;;;;;;;10.37;8.03;;;;;;;;;;6130392;23;20179;-87
2022/03/09 09:15:05;;;;;;;7.00;5.60;;;;;;;;;;6153816;23;20228;-86
2022/03/09 09:18:18;;;;;;;4.43;2.73;;;;;;;;;;6124056;23;20182;-86
2022/03/09 09:20:51;;;;;;;7.63;4.63;;;;;;;;;;6130278;23;20185;-86
2022/03/09 09:23:22;;;;;;;5.90;4.47;;;;;;;;;;6130717;23;20208;-86
2022/03/09 09:25:51;;;;;;;14.57;8.53;;;;;;;;;;6130155;23;20177;-87
2022/03/09 09:28:21;;;;;;;11.30;9.90;;;;;;;;;;6130036;23;20184;-87
2022/03/09 09:30:53;;;;;;;13.90;10.00;;;;;;;;;;6130648;23;20267;-87
2022/03/09 09:33:22;;;;;;;13.70;10.07;;;;;;;;;;6130487;23;20208;-87
2022/03/09 09:35:58;;;;;;;16.40;12.33;;;;;;;;;;6130555;23;20552;-87
2022/03/09 09:38:31;;;;;;;20.57;13.37;;;;;;;;;;6130246;23;20180;-87
2022/03/09 09:41:00;;;;;;;13.43;9.10;;;;;;;;;;6129942;23;20213;-87
2022/03/09 09:43:57;;;;;;;17.83;14.77;;;;;;;;;;6129494;23;20189;-87
2022/03/09 09:46:29;;;;;;;6.77;4.97;;;;;;;;;;6129972;23;20177;-87
2022/03/09 09:49:01;;;;;;;7.00;6.30;;;;;;;;;;6129808;23;20179;-87
2022/03/09 09:51:31;;;;;;;15.33;11.33;;;;;;;;;;6129873;23;20185;-87
2022/03/09 09:54:10;;;;;;;17.50;12.70;;;;;;;;;;6129443;23;20181;-87
2022/03/09 09:56:45;;;;;;;11.63;7.60;;;;;;;;;;6129601;23;20177;-87
2022/03/09 09:59:18;;;;;;;7.20;6.43;;;;;;;;;;6130023;23;20180;-87
2022/03/09 10:01:51;;;;;;;13.27;7.77;;;;;;;;;;6129350;23;20260;-87
2022/03/09 10:04:25;;;;;;;12.43;9.40;;;;;;;;;;6129961;23;20223;-87
2022/03/09 10:07:00;;;;;;;12.57;8.77;;;;;;;;;;6129763;23;20185;-87
2022/03/09 10:09:40;;;;;;;6.87;5.40;;;;;;;;;;6129914;23;20189;-87
2022/03/09 10:12:10;;;;;;;9.27;6.77;;;;;;;;;;6129934;23;20178;-87
2022/03/09 10:14:47;;;;;;;13.83;8.07;;;;;;;;;;6129392;23;20234;-87
2022/03/09 10:17:21;;;;;;;7.70;6.97;;;;;;;;;;6129730;23;20179;-87
2022/03/09 10:19:53;;;;;;;7.10;5.20;;;;;;;;;;6129779;23;20259;-87
2022/03/09 10:22:32;;;;;;;10.53;8.77;;;;;;;;;;6129903;23;20249;-86
2022/03/09 10:25:23;;;;;;;14.67;10.40;;;;;;;;;;6129965;23;20175;-86
2022/03/09 10:27:56;;;;;;;19.40;12.40;;;;;;;;;;6129455;23;20182;-87
2022/03/09 10:30:31;;;;;;;6.30;5.07;;;;;;;;;;6129838;23;20179;-87
2022/03/09 10:33:05;;;;;;;9.87;6.63;;;;;;;;;;6129203;23;20185;-87
2022/03/09 10:35:44;;;;;;;2.63;2.20;;;;;;;;;;6129554;23;20191;-87
2022/03/09 10:38:23;;;;;;;11.27;6.30;;;;;;;;;;6129807;23;20182;-87
2022/03/09 10:41:08;;;;;;;2.87;2.60;;;;;;;;;;6129296;23;20235;-87
2022/03/09 10:43:40;;;;;;;7.30;4.87;;;;;;;;;;6129536;23;20179;-86
2022/03/09 10:46:09;;;;;;;22.70;14.20;;;;;;;;;;6129627;23;20175;-87
2022/03/09 10:48:52;;;;;;;9.93;3.47;;;;;;;;;;6129987;23;20178;-87
2022/03/09 10:51:31;;;;;;;16.57;8.60;;;;;;;;;;6129655;23;20180;-87
2022/03/09 10:54:00;;;;;;;16.53;11.67;;;;;;;;;;6129755;23;20238;-86
2022/03/09 10:56:31;;;;;;;19.83;14.97;;;;;;;;;;6129672;23;20219;-87
2022/03/09 10:59:09;;;;;;;18.83;12.80;;;;;;;;;;6129604;23;20182;-87
2022/03/09 11:01:38;;;;;;;20.47;16.40;;;;;;;;;;6129188;23;20207;-87
2022/03/09 11:04:17;;;;;;;14.77;9.97;;;;;;;;;;6129027;23;20203;-87
2022/03/09 11:06:49;;;;;;;16.10;11.63;;;;;;;;;;6129595;23;20178;-87
2022/03/09 11:09:19;;;;;;;25.00;17.80;;;;;;;;;;6129853;23;20179;-86
2022/03/09 11:11:50;;;;;;;5.73;3.83;;;;;;;;;;6129415;23;20176;-87
2022/03/09 11:14:20;;;;;;;8.10;6.33;;;;;;;;;;6129704;23;20182;-88
2022/03/09 11:16:49;;;;;;;19.00;15.20;;;;;;;;;;6129645;23;20223;-87
2022/03/09 11:19:19;;;;;;;19.40;13.43;;;;;;;;;;6129294;23;20254;-87
2022/03/09 11:21:48;;;;;;;19.10;13.50;;;;;;;;;;6129575;23;20183;-86
2022/03/09 11:24:19;;;;;;;9.80;7.23;;;;;;;;;;6129616;23;20229;-87
2022/03/09 11:26:51;;;;;;;21.70;11.43;;;;;;;;;;6129344;23;20246;-87
2022/03/09 11:29:29;;;;;;;17.57;14.73;;;;;;;;;;6129313;23;20176;-87
2022/03/09 11:31:57;;;;;;;18.90;9.90;;;;;;;;;;6129430;23;20294;-87
2022/03/09 11:34:36;;;;;;;9.87;6.80;;;;;;;;;;6129486;23;20206;-87
2022/03/09 11:37:06;;;;;;;17.03;13.63;;;;;;;;;;6154028;23;20195;-87
2022/03/09 11:39:36;;;;;;;20.27;16.27;;;;;;;;;;6128721;23;20183;-87
2022/03/09 11:42:23;;;;;;;20.33;15.27;;;;;;;;;;6129176;23;20250;-87
2022/03/09 11:45:17;;;;;;;20.97;15.43;;;;;;;;;;6130974;23;20183;-87
2022/03/09 11:48:07;;;;;;;14.07;10.13;;;;;;;;;;6130574;23;20207;-87
2022/03/09 11:50:59;;;;;;;22.87;19.17;;;;;;;;;;6125720;23;20175;-87
2022/03/09 11:53:39;;;;;;;19.63;14.20;;;;;;;;;;6131446;23;20291;-87
2022/03/09 11:56:29;;;;;;;14.70;9.80;;;;;;;;;;6131178;23;20191;-87
2022/03/09 11:59:13;;;;;;;5.97;3.00;;;;;;;;;;6131570;23;20247;-87
2022/03/09 12:02:04;;;;;;;13.63;10.93;;;;;;;;;;6131256;23;20179;-87
2022/03/09 12:04:48;;;;;;;19.63;14.87;;;;;;;;;;6131067;23;20278;-88
2022/03/09 12:07:50;;;;;;;11.07;7.93;;;;;;;;;;6131354;23;20172;-87
2022/03/09 12:10:24;;;;;;;11.57;7.50;;;;;;;;;;6131460;23;20179;-87
2022/03/09 12:13:19;;;;;;;16.30;10.63;;;;;;;;;;6131059;23;20180;-85
2022/03/09 12:16:15;;;;;;;20.83;14.10;;;;;;;;;;6131004;23;20208;-87
2022/03/09 12:18:52;;;;;;;20.30;15.23;;;;;;;;;;6128474;23;20184;-87
2022/03/09 12:21:46;;;;;;;5.33;4.73;;;;;;;;;;6131276;23;20202;-87
2022/03/09 12:24:25;;;;;;;17.30;13.33;;;;;;;;;;6130707;23;20176;-87
2022/03/09 12:27:22;;;;;;;20.13;16.40;;;;;;;;;;6131915;23;20200;-86
2022/03/09 12:30:02;;;;;;;7.33;5.23;;;;;;;;;;6131228;23;20243;-87
2022/03/09 12:32:48;;;;;;;17.70;10.73;;;;;;;;;;6130898;23;20185;-87
2022/03/09 12:35:30;;;;;;;21.10;10.27;;;;;;;;;;6130954;23;20246;-86
2022/03/09 12:38:14;;;;;;;21.70;15.13;;;;;;;;;;6130348;23;20214;-87
2022/03/09 12:40:53;;;;;;;12.50;7.03;;;;;;;;;;6130362;23;20244;-88
2022/03/09 12:43:44;;;;;;;22.40;19.13;;;;;;;;;;6130415;23;20266;-87
2022/03/09 12:46:33;;;;;;;23.90;20.23;;;;;;;;;;6130940;23;20173;-87
2022/03/09 12:49:15;;;;;;;16.40;10.40;;;;;;;;;;6109032;23;20184;-87
2022/03/09 12:51:53;;;;;;;24.53;16.63;;;;;;;;;;6131031;23;20181;-87
2022/03/09 12:54:46;;;;;;;23.10;14.50;;;;;;;;;;6130523;23;20180;-87
2022/03/09 12:57:23;;;;;;;19.93;13.07;;;;;;;;;;6130632;23;20201;-87
2022/03/09 12:59:58;;;;;;;13.83;7.43;;;;;;;;;;6129718;23;20186;-87
2022/03/09 13:02:55;;;;;;;19.20;14.00;;;;;;;;;;6130493;23;20255;-87
2022/03/09 13:05:35;;;;;;;22.50;18.13;;;;;;;;;;6130668;23;20208;-88
2022/03/09 13:08:08;;;;;;;23.63;17.90;;;;;;;;;;6130868;23;20173;-87
2022/03/09 13:10:51;;;;;;;11.63;6.80;;;;;;;;;;6130711;23;20175;-87
2022/03/09 13:13:30;;;;;;;14.67;13.73;;;;;;;;;;6130204;23;20580;-87
2022/03/09 13:16:17;;;;;;;9.87;5.17;;;;;;;;;;6130471;23;20245;-87
2022/03/09 13:18:49;;;;;;;20.60;14.03;;;;;;;;;;6130297;23;20216;-87
2022/03/09 13:21:31;;;;;;;14.83;8.37;;;;;;;;;;6130785;23;20255;-88
2022/03/09 13:24:01;;;;;;;8.50;6.47;;;;;;;;;;6130421;23;20192;-87
2022/03/09 13:26:39;;;;;;;21.10;15.30;;;;;;;;;;6130718;23;20179;-88
2022/03/09 13:29:18;;;;;;;27.63;19.37;;;;;;;;;;6130316;23;20253;-87
2022/03/09 13:31:52;;;;;;;20.03;11.43;;;;;;;;;;6130084;23;20184;-87
2022/03/09 13:34:23;;;;;;;23.90;15.50;;;;;;;;;;6129891;23;20258;-88
2022/03/09 13:37:06;;;;;;;16.67;11.23;;;;;;;;;;6130348;23;20197;-87
2022/03/09 13:39:39;;;;;;;10.40;7.73;;;;;;;;;;6130409;23;20177;-87
2022/03/09 13:42:09;;;;;;;24.17;18.93;;;;;;;;;;6130185;23;20218;-88
2022/03/09 13:44:41;;;;;;;23.93;18.07;;;;;;;;;;6129581;23;20211;-87
2022/03/09 13:47:18;;;;;;;14.50;10.00;;;;;;;;;;6129967;23;20201;-87
2022/03/09 13:49:53;;;;;;;22.37;15.13;;;;;;;;;;6130158;23;20185;-88
2022/03/09 13:52:29;;;;;;;22.57;16.17;;;;;;;;;;6129980;23;20188;-87
2022/03/09 13:55:05;;;;;;;25.40;21.30;;;;;;;;;;6130346;23;20230;-88
2022/03/09 13:57:41;;;;;;;20.53;12.47;;;;;;;;;;6129878;23;20216;-88
2022/03/09 14:00:31;;;;;;;24.40;19.47;;;;;;;;;;6129900;23;20183;-88
2022/03/09 14:03:10;;;;;;;26.90;20.00;;;;;;;;;;6129959;23;20292;-87
2022/03/09 14:05:52;;;;;;;25.10;18.93;;;;;;;;;;6129324;23;20212;-88
2022/03/09 14:08:38;;;;;;;23.17;19.10;;;;;;;;;;6129396;23;20173;-87
2022/03/09 14:11:08;;;;;;;22.33;16.33;;;;;;;;;;6129821;23;20382;-87
2022/03/09 14:17:31;;;;;;;14.50;9.43;;;;;;;;;;6101933;23;20206;-88
2022/03/09 14:20:15;;;;;;;23.50;14.70;;;;;;;;;;6129967;23;20192;-89
2022/03/09 14:23:19;;;;;;;24.33;19.77;;;;;;;;;;6129007;23;20205;-89
2022/03/09 14:26:26;;;;;;;22.97;17.50;;;;;;;;;;6129622;23;20182;-90
2022/03/09 14:33:42;;;;;;;23.57;18.17;;;;;;;;;;6039393;23;20180;-90
2022/03/09 14:37:14;;;;;;;;;;;;;;;;;;;;;
2022/03/09 14:52:19;;;;;;;27.10;18.60;;;;;;;;;;5883298;24;20193;-90
2022/03/09 15:06:32;;;;;;;21.83;15.00;;;;;;;;;;5768018;24;20300;-89
2022/03/09 15:21:03;;;;;;;23.17;19.50;;;;;;;;;;5670701;24;20312;-89
2022/03/09 15:24:13;;;;;;;22.60;16.20;;;;;;;;;;5871734;24;20184;-90
2022/03/09 15:27:15;;;;;;;26.00;19.10;;;;;;;;;;5929923;24;20232;-90
2022/03/09 15:34:27;;;;;;;22.80;16.13;;;;;;;;;;5789968;24;20239;-89
2022/03/09 15:40:47;;;;;;;25.23;20.27;;;;;;;;;;5910228;24;20187;-89
2022/03/09 15:43:54;;;;;;;20.17;12.13;;;;;;;;;;5928938;24;20187;-90
2022/03/09 15:46:43;;;;;;;15.70;9.70;;;;;;;;;;5905180;24;20211;-89
2022/03/09 15:49:32;;;;;;;22.73;15.97;;;;;;;;;;5905636;24;20198;-88
2022/03/09 15:52:19;;;;;;;28.17;18.27;;;;;;;;;;5929126;24;20273;-89
2022/03/09 15:55:20;;;;;;;22.77;17.27;;;;;;;;;;5906433;24;20187;-89
2022/03/09 15:58:09;;;;;;;25.67;18.20;;;;;;;;;;5928230;24;20243;-89
2022/03/09 16:00:55;;;;;;;21.60;14.80;;;;;;;;;;5906515;24;20182;-90
2022/03/09 16:03:45;;;;;;;23.27;16.17;;;;;;;;;;5937092;23;20248;-88
2022/03/09 16:06:36;;;;;;;27.80;18.77;;;;;;;;;;6050932;23;20179;-89
2022/03/09 16:09:35;;;;;;;22.53;15.00;;;;;;;;;;6131268;23;20173;-89
2022/03/09 16:13:10;;;;;;;30.63;20.07;;;;;;;;;;6115383;23;20177;-90
2022/03/09 16:19:39;;;;;;;26.43;17.23;;;;;;;;;;6041364;23;20214;-90
2022/03/09 16:22:43;;;;;;;21.80;12.40;;;;;;;;;;6127034;23;20182;-90
2022/03/09 16:32:40;;;;;;;24.53;15.83;;;;;;;;;;6015304;23;20183;-89
2022/03/09 16:35:42;;;;;;;29.57;17.80;;;;;;;;;;6012906;23;20239;-90